SBBRSBUL

Guest
Details From SBBR - Brasilia Presidente Juscelino Kubitsch
To SBUL - TEN CEL AV CESAR BOMBONATO
Flight Number -
Tags generated
Created
Modified
Stats Distance 185 nm / 343 km
Max Altitude 24,500 ft / 7,468 m
Waypoints 4
Social Downloads 0
Likes 0
Share VATSIM

Download

Looking for another format? Having issues loading an existing format? Contact us
Advertisement - Login to hide

Notes

Basic altitude profile: - Ascent Rate: 2500ft/min - Ascent Speed: 250kts - Cruise Altitude: 35000ft - Cruise Speed: 420kts - Descent Rate: 1500ft/min - Descent Speed: 250kts Options: - Use NATs: yes - Use PACOTS: yes - Use low airways: yes - Use high airways: yes

Route

SBBR LUZ UW6 PAGUE SBUL

ID Type Via Altitude Latitude Longitude Leg Dist Tot Dist Heading (true) Name
O SBBR APT - 0 ft / 0 m -15.87110˚ -47.91863˚ - 0 nm - Brasilia Presidente Juscelino Kubitsch
LUZ VOR - 8,400 ft / 2,560 m -16.26085˚ -47.97096˚ 23 nm 23 nm 187° / 187° LUZIANIA VOR-DME
PAGUE FIX UW6 (AWY-HI) 24,500 ft / 7,468 m -18.24883˚ -48.41200˚ 122 nm 145 nm 192° / 192° -
O SBUL APT - 0 ft / 0 m -18.88284˚ -48.22559˚ 39 nm 185 nm 164° / 164° TEN CEL AV CESAR BOMBONATO

Altitude Profile

Advertisement - Login to hide

Weather


0- 5 10 15 20 25 30 35+ Temperature / ° C

Clouds and Precipitation
Forecast for 2018-05-23 18:00 UTC. Updated 2 hours ago

Ground ~20,000 ft ~40,000 ft Winds

SBBR

Details ICAO SBBR (BSB)
Name Brasilia Presidente Juscelino Kubitsch
Region Brazil
Timezone America/Sao_Paulo (UTC-3.0)
Stats Elevation 3,479 ft / 1,060 m (AMSL)
Location -15.871101° -47.918626°
Runways 2
Magnetic Variation 21.594° W

METAR

SBBR 231900Z 12004KT 9999 SCT040 26/13 Q1021

Decode

TAF

TAF SBBR 231600Z 2318/2418 09005KT 9999 FEW030 TN12/2408Z TX26/2417Z PROB30 2318/2321 SCT030 BECMG BECMG 2400/2402 CAVOK BECMG 2413/2415 09005KT 9999 FEW030 BECMG 2415/2417 12006KT SCT040 RMK PDS

Decode

Departure Runways

ID Width Length Bearing (true) Bearing (mag) Surface Threshold Offset Overrun Length
11L 148 ft / 45 m 10,493 ft / 3,198 m 86.35° 107.94° Asphalt 0 ft / 0 m 200 ft / 61 m
11R 148 ft / 45 m 10,839 ft / 3,304 m 86.00° 107.59° Asphalt 2,635 ft / 803 m 200 ft / 61 m
29L 148 ft / 45 m 10,839 ft / 3,304 m 265.99° 287.58° Asphalt 0 ft / 0 m 200 ft / 61 m
29R 148 ft / 45 m 10,493 ft / 3,198 m 266.34° 287.93° Asphalt 0 ft / 0 m 200 ft / 61 m

SBUL

Details ICAO SBUL (UDI)
Name TEN CEL AV CESAR BOMBONATO
Region Brazil
Timezone America/Sao_Paulo (UTC-3.0)
Stats Elevation 3,094 ft / 943 m (AMSL)
Location -18.882843° -48.225593°
Runways 1
Magnetic Variation 21.309° W

METAR

Not found

TAF

TAF SBUL 231616Z 2318/2406 34005KT CAVOK TX26/2319Z TN15/2405Z BECMG 2321/2323 17005KT RMK PGQ

Decode

Destination Runways

ID Width Length Bearing (true) Bearing (mag) Surface Threshold Offset Overrun Length
04 148 ft / 45 m 6,418 ft / 1,956 m 22.56° 43.87° Asphalt 0 ft / 0 m 0 ft / 0 m
22 148 ft / 45 m 6,418 ft / 1,956 m 202.55° 223.86° Asphalt 0 ft / 0 m 0 ft / 0 m

Popular Alternatives